sensor_id;sensor_type;location;lat;lon;timestamp;temperature;humidity
58261;DHT22;44058;52.898;6.502;2022-09-09T00:04:03;15.20;99.90
58261;DHT22;44058;52.898;6.502;2022-09-09T00:06:55;15.10;99.90
58261;DHT22;44058;52.898;6.502;2022-09-09T00:09:27;15.10;99.90
58261;DHT22;44058;52.898;6.502;2022-09-09T00:14:51;14.90;99.90
58261;DHT22;44058;52.898;6.502;2022-09-09T00:17:25;14.90;99.90
58261;DHT22;44058;52.898;6.502;2022-09-09T00:23:27;14.90;99.90
58261;DHT22;44058;52.898;6.502;2022-09-09T00:29:10;15.00;99.90
58261;DHT22;44058;52.898;6.502;2022-09-09T00:32:11;14.90;99.90
58261;DHT22;44058;52.898;6.502;2022-09-09T00:35:04;14.90;99.90
58261;DHT22;44058;52.898;6.502;2022-09-09T00:38:01;14.90;99.90
58261;DHT22;44058;52.898;6.502;2022-09-09T00:40:52;14.80;99.90
58261;DHT22;44058;52.898;6.502;2022-09-09T00:43:40;14.80;99.90
58261;DHT22;44058;52.898;6.502;2022-09-09T00:50:03;14.60;99.90
58261;DHT22;44058;52.898;6.502;2022-09-09T00:53:19;14.40;99.90
58261;DHT22;44058;52.898;6.502;2022-09-09T00:56:20;14.50;99.90
58261;DHT22;44058;52.898;6.502;2022-09-09T01:02:34;14.30;99.90
58261;DHT22;44058;52.898;6.502;2022-09-09T01:05:46;14.30;99.90
58261;DHT22;44058;52.898;6.502;2022-09-09T01:08:42;14.30;99.90
58261;DHT22;44058;52.898;6.502;2022-09-09T01:11:49;14.30;99.90
58261;DHT22;44058;52.898;6.502;2022-09-09T01:17:31;14.40;99.90
58261;DHT22;44058;52.898;6.502;2022-09-09T01:20:20;14.40;99.90
58261;DHT22;44058;52.898;6.502;2022-09-09T01:23:33;14.30;99.90
58261;DHT22;44058;52.898;6.502;2022-09-09T01:26:28;14.40;99.90
58261;DHT22;44058;52.898;6.502;2022-09-09T01:29:17;14.40;99.90
58261;DHT22;44058;52.898;6.502;2022-09-09T01:32:37;14.40;99.90
58261;DHT22;44058;52.898;6.502;2022-09-09T01:38:15;14.60;99.90
58261;DHT22;44058;52.898;6.502;2022-09-09T01:41:02;14.60;99.90
58261;DHT22;44058;52.898;6.502;2022-09-09T01:43:48;14.70;99.90
58261;DHT22;44058;52.898;6.502;2022-09-09T01:46:34;14.70;99.90
58261;DHT22;44058;52.898;6.502;2022-09-09T01:49:20;14.80;99.90
58261;DHT22;44058;52.898;6.502;2022-09-09T01:52:06;14.80;99.90
58261;DHT22;44058;52.898;6.502;2022-09-09T01:54:53;14.80;99.90
58261;DHT22;44058;52.898;6.502;2022-09-09T02:00:36;14.90;99.90
58261;DHT22;44058;52.898;6.502;2022-09-09T02:03:28;14.90;99.90
58261;DHT22;44058;52.898;6.502;2022-09-09T02:06:34;14.90;99.90
58261;DHT22;44058;52.898;6.502;2022-09-09T02:09:23;14.90;99.90
58261;DHT22;44058;52.898;6.502;2022-09-09T02:12:13;14.90;99.90
58261;DHT22;44058;52.898;6.502;2022-09-09T02:15:03;14.90;99.90
58261;DHT22;44058;52.898;6.502;2022-09-09T02:17:52;15.00;99.90
58261;DHT22;44058;52.898;6.502;2022-09-09T02:20:39;15.10;99.90
58261;DHT22;44058;52.898;6.502;2022-09-09T02:23:25;15.10;99.90
58261;DHT22;44058;52.898;6.502;2022-09-09T02:26:12;15.10;99.90
58261;DHT22;44058;52.898;6.502;2022-09-09T02:29:02;15.10;99.90
58261;DHT22;44058;52.898;6.502;2022-09-09T02:31:49;15.20;99.90
58261;DHT22;44058;52.898;6.502;2022-09-09T02:34:39;15.20;99.90
58261;DHT22;44058;52.898;6.502;2022-09-09T02:37:32;15.20;99.90
58261;DHT22;44058;52.898;6.502;2022-09-09T02:40:19;15.20;99.90
58261;DHT22;44058;52.898;6.502;2022-09-09T02:43:05;15.20;99.90
58261;DHT22;44058;52.898;6.502;2022-09-09T02:52:14;15.20;99.90
58261;DHT22;44058;52.898;6.502;2022-09-09T02:55:10;15.20;99.90
58261;DHT22;44058;52.898;6.502;2022-09-09T02:57:58;15.20;99.90
58261;DHT22;44058;52.898;6.502;2022-09-09T03:00:50;15.20;99.90
58261;DHT22;44058;52.898;6.502;2022-09-09T03:03:36;15.20;99.90
58261;DHT22;44058;52.898;6.502;2022-09-09T03:06:21;15.20;99.90
58261;DHT22;44058;52.898;6.502;2022-09-09T03:09:07;15.10;99.90
58261;DHT22;44058;52.898;6.502;2022-09-09T03:11:55;15.00;99.90
58261;DHT22;44058;52.898;6.502;2022-09-09T03:14:41;14.90;99.90
58261;DHT22;44058;52.898;6.502;2022-09-09T03:17:28;14.90;99.90
58261;DHT22;44058;52.898;6.502;2022-09-09T03:20:14;14.90;99.90
58261;DHT22;44058;52.898;6.502;2022-09-09T03:23:00;14.90;99.90
58261;DHT22;44058;52.898;6.502;2022-09-09T03:25:47;14.90;99.90
58261;DHT22;44058;52.898;6.502;2022-09-09T03:28:33;14.90;99.90
58261;DHT22;44058;52.898;6.502;2022-09-09T03:31:20;14.90;99.90
58261;DHT22;44058;52.898;6.502;2022-09-09T03:34:06;15.00;99.90
58261;DHT22;44058;52.898;6.502;2022-09-09T03:36:52;15.00;99.90
58261;DHT22;44058;52.898;6.502;2022-09-09T03:39:38;14.90;99.90
58261;DHT22;44058;52.898;6.502;2022-09-09T03:42:23;14.90;99.90
58261;DHT22;44058;52.898;6.502;2022-09-09T03:45:11;14.90;99.90
58261;DHT22;44058;52.898;6.502;2022-09-09T03:47:57;14.90;99.90
58261;DHT22;44058;52.898;6.502;2022-09-09T03:50:51;14.90;99.90
58261;DHT22;44058;52.898;6.502;2022-09-09T03:53:37;14.90;99.90
58261;DHT22;44058;52.898;6.502;2022-09-09T03:56:24;14.80;99.90
58261;DHT22;44058;52.898;6.502;2022-09-09T03:59:10;14.80;99.90
58261;DHT22;44058;52.898;6.502;2022-09-09T04:01:55;14.80;99.90
58261;DHT22;44058;52.898;6.502;2022-09-09T04:04:42;14.80;99.90
58261;DHT22;44058;52.898;6.502;2022-09-09T04:07:28;14.80;99.90
58261;DHT22;44058;52.898;6.502;2022-09-09T04:10:13;14.80;99.90
58261;DHT22;44058;52.898;6.502;2022-09-09T04:13:01;14.90;99.90
58261;DHT22;44058;52.898;6.502;2022-09-09T04:15:54;14.80;99.90
58261;DHT22;44058;52.898;6.502;2022-09-09T04:18:41;14.80;99.90
58261;DHT22;44058;52.898;6.502;2022-09-09T04:21:27;14.80;99.90
58261;DHT22;44058;52.898;6.502;2022-09-09T04:24:12;14.80;99.90
58261;DHT22;44058;52.898;6.502;2022-09-09T04:26:58;14.80;99.90
58261;DHT22;44058;52.898;6.502;2022-09-09T04:29:44;14.80;99.90
58261;DHT22;44058;52.898;6.502;2022-09-09T04:32:29;14.80;99.90
58261;DHT22;44058;52.898;6.502;2022-09-09T04:35:17;14.80;99.90
58261;DHT22;44058;52.898;6.502;2022-09-09T04:38:04;14.80;99.90
58261;DHT22;44058;52.898;6.502;2022-09-09T04:40:51;14.70;99.90
58261;DHT22;44058;52.898;6.502;2022-09-09T04:43:38;14.70;99.90
58261;DHT22;44058;52.898;6.502;2022-09-09T04:46:24;14.70;99.90
58261;DHT22;44058;52.898;6.502;2022-09-09T04:49:13;14.70;99.90
58261;DHT22;44058;52.898;6.502;2022-09-09T04:51:58;14.60;99.90
58261;DHT22;44058;52.898;6.502;2022-09-09T04:54:45;14.60;99.90
58261;DHT22;44058;52.898;6.502;2022-09-09T04:57:32;14.60;99.90
58261;DHT22;44058;52.898;6.502;2022-09-09T05:00:18;14.60;99.90
58261;DHT22;44058;52.898;6.502;2022-09-09T05:03:05;14.60;99.90
58261;DHT22;44058;52.898;6.502;2022-09-09T05:05:51;14.60;99.90
58261;DHT22;44058;52.898;6.502;2022-09-09T05:08:39;14.60;99.90
58261;DHT22;44058;52.898;6.502;2022-09-09T05:11:28;14.60;99.90
58261;DHT22;44058;52.898;6.502;2022-09-09T05:14:14;14.50;99.90
58261;DHT22;44058;52.898;6.502;2022-09-09T05:17:00;14.50;99.90
58261;DHT22;44058;52.898;6.502;2022-09-09T05:19:46;14.50;99.90
58261;DHT22;44058;52.898;6.502;2022-09-09T05:22:32;14.50;99.90
58261;DHT22;44058;52.898;6.502;2022-09-09T05:25:17;14.50;99.90
58261;DHT22;44058;52.898;6.502;2022-09-09T05:28:04;14.50;99.90
58261;DHT22;44058;52.898;6.502;2022-09-09T05:31:02;14.40;99.90
58261;DHT22;44058;52.898;6.502;2022-09-09T05:33:54;14.40;99.90
58261;DHT22;44058;52.898;6.502;2022-09-09T05:36:40;14.40;99.90
58261;DHT22;44058;52.898;6.502;2022-09-09T05:39:25;14.30;99.90
58261;DHT22;44058;52.898;6.502;2022-09-09T05:42:11;14.30;99.90
58261;DHT22;44058;52.898;6.502;2022-09-09T05:44:56;14.30;99.90
58261;DHT22;44058;52.898;6.502;2022-09-09T05:47:42;14.30;99.90
58261;DHT22;44058;52.898;6.502;2022-09-09T05:50:28;14.30;99.90
58261;DHT22;44058;52.898;6.502;2022-09-09T05:53:14;14.30;99.90
58261;DHT22;44058;52.898;6.502;2022-09-09T05:56:07;14.30;99.90
58261;DHT22;44058;52.898;6.502;2022-09-09T05:58:56;14.30;99.90
58261;DHT22;44058;52.898;6.502;2022-09-09T06:01:42;14.30;99.90
58261;DHT22;44058;52.898;6.502;2022-09-09T06:04:28;14.40;99.90
58261;DHT22;44058;52.898;6.502;2022-09-09T06:07:13;14.40;99.90
58261;DHT22;44058;52.898;6.502;2022-09-09T06:09:59;14.50;99.90
58261;DHT22;44058;52.898;6.502;2022-09-09T06:12:45;14.50;99.90
58261;DHT22;44058;52.898;6.502;2022-09-09T06:15:31;14.50;99.90
58261;DHT22;44058;52.898;6.502;2022-09-09T06:18:17;14.60;99.90
58261;DHT22;44058;52.898;6.502;2022-09-09T06:21:06;14.60;99.90
58261;DHT22;44058;52.898;6.502;2022-09-09T06:23:53;14.60;99.90
58261;DHT22;44058;52.898;6.502;2022-09-09T06:26:39;14.60;99.90
58261;DHT22;44058;52.898;6.502;2022-09-09T06:29:28;14.60;99.90
58261;DHT22;44058;52.898;6.502;2022-09-09T06:32:13;14.70;99.90
58261;DHT22;44058;52.898;6.502;2022-09-09T06:34:59;14.70;99.90
58261;DHT22;44058;52.898;6.502;2022-09-09T06:37:46;14.70;99.90
58261;DHT22;44058;52.898;6.502;2022-09-09T06:40:34;14.80;99.90
58261;DHT22;44058;52.898;6.502;2022-09-09T06:43:21;14.80;99.90
58261;DHT22;44058;52.898;6.502;2022-09-09T06:46:12;14.80;99.90
58261;DHT22;44058;52.898;6.502;2022-09-09T06:48:59;14.80;99.90
58261;DHT22;44058;52.898;6.502;2022-09-09T06:51:45;14.80;99.90
58261;DHT22;44058;52.898;6.502;2022-09-09T06:54:31;14.80;99.90
58261;DHT22;44058;52.898;6.502;2022-09-09T06:57:17;14.80;99.90
58261;DHT22;44058;52.898;6.502;2022-09-09T07:00:04;14.80;99.90
58261;DHT22;44058;52.898;6.502;2022-09-09T07:02:50;14.90;99.90
58261;DHT22;44058;52.898;6.502;2022-09-09T07:05:36;14.80;99.90
58261;DHT22;44058;52.898;6.502;2022-09-09T07:08:22;14.90;99.90
58261;DHT22;44058;52.898;6.502;2022-09-09T07:11:08;15.00;99.90
58261;DHT22;44058;52.898;6.502;2022-09-09T07:13:55;15.10;99.90
58261;DHT22;44058;52.898;6.502;2022-09-09T07:16:41;15.00;99.90
58261;DHT22;44058;52.898;6.502;2022-09-09T07:19:27;15.20;99.90
58261;DHT22;44058;52.898;6.502;2022-09-09T07:22:13;15.30;99.90
58261;DHT22;44058;52.898;6.502;2022-09-09T07:24:58;15.40;99.90
58261;DHT22;44058;52.898;6.502;2022-09-09T07:27:44;15.40;99.90
58261;DHT22;44058;52.898;6.502;2022-09-09T07:30:30;15.50;99.90
58261;DHT22;44058;52.898;6.502;2022-09-09T07:33:15;15.60;99.90
58261;DHT22;44058;52.898;6.502;2022-09-09T07:36:07;15.60;99.90
58261;DHT22;44058;52.898;6.502;2022-09-09T07:38:56;15.70;99.90
58261;DHT22;44058;52.898;6.502;2022-09-09T07:41:44;15.80;99.90
58261;DHT22;44058;52.898;6.502;2022-09-09T07:44:30;15.90;99.90
58261;DHT22;44058;52.898;6.502;2022-09-09T07:47:20;15.90;99.90
58261;DHT22;44058;52.898;6.502;2022-09-09T07:50:06;16.00;99.90
58261;DHT22;44058;52.898;6.502;2022-09-09T07:52:52;16.00;99.90
58261;DHT22;44058;52.898;6.502;2022-09-09T07:55:38;16.20;99.90
58261;DHT22;44058;52.898;6.502;2022-09-09T07:58:24;16.30;99.90
58261;DHT22;44058;52.898;6.502;2022-09-09T08:01:25;16.40;99.90
58261;DHT22;44058;52.898;6.502;2022-09-09T08:04:16;16.40;99.90
58261;DHT22;44058;52.898;6.502;2022-09-09T08:07:03;16.40;99.90
58261;DHT22;44058;52.898;6.502;2022-09-09T08:09:49;16.50;99.90
58261;DHT22;44058;52.898;6.502;2022-09-09T08:12:34;16.50;99.90
58261;DHT22;44058;52.898;6.502;2022-09-09T08:15:20;16.60;99.90
58261;DHT22;44058;52.898;6.502;2022-09-09T08:18:06;16.50;99.90
58261;DHT22;44058;52.898;6.502;2022-09-09T08:20:51;16.70;99.90
58261;DHT22;44058;52.898;6.502;2022-09-09T08:23:38;16.60;99.90
58261;DHT22;44058;52.898;6.502;2022-09-09T08:26:32;16.60;99.90
58261;DHT22;44058;52.898;6.502;2022-09-09T08:29:19;16.70;99.90
58261;DHT22;44058;52.898;6.502;2022-09-09T08:32:05;16.60;99.90
58261;DHT22;44058;52.898;6.502;2022-09-09T08:34:50;16.70;99.90
58261;DHT22;44058;52.898;6.502;2022-09-09T08:37:36;16.80;99.90
58261;DHT22;44058;52.898;6.502;2022-09-09T08:40:26;16.90;99.90
58261;DHT22;44058;52.898;6.502;2022-09-09T08:43:14;16.90;99.90
58261;DHT22;44058;52.898;6.502;2022-09-09T08:46:21;16.90;99.90
58261;DHT22;44058;52.898;6.502;2022-09-09T08:52:31;16.90;99.90
58261;DHT22;44058;52.898;6.502;2022-09-09T08:58:44;17.00;99.90
58261;DHT22;44058;52.898;6.502;2022-09-09T09:01:50;17.00;99.90
58261;DHT22;44058;52.898;6.502;2022-09-09T09:04:56;17.10;99.90
58261;DHT22;44058;52.898;6.502;2022-09-09T09:10:57;17.20;99.90
58261;DHT22;44058;52.898;6.502;2022-09-09T09:14:04;17.20;99.90
58261;DHT22;44058;52.898;6.502;2022-09-09T09:16:56;17.30;99.90
58261;DHT22;44058;52.898;6.502;2022-09-09T09:19:43;17.40;99.90
58261;DHT22;44058;52.898;6.502;2022-09-09T09:22:39;17.40;99.90
58261;DHT22;44058;52.898;6.502;2022-09-09T09:25:38;17.40;99.90
58261;DHT22;44058;52.898;6.502;2022-09-09T09:28:29;17.40;99.90
58261;DHT22;44058;52.898;6.502;2022-09-09T09:31:18;17.50;99.90
58261;DHT22;44058;52.898;6.502;2022-09-09T09:34:05;17.40;99.90
58261;DHT22;44058;52.898;6.502;2022-09-09T09:36:57;17.60;99.90
58261;DHT22;44058;52.898;6.502;2022-09-09T09:39:43;17.60;99.90
58261;DHT22;44058;52.898;6.502;2022-09-09T09:42:29;17.70;99.90
58261;DHT22;44058;52.898;6.502;2022-09-09T09:45:32;17.80;99.90
58261;DHT22;44058;52.898;6.502;2022-09-09T09:48:19;17.70;99.90
58261;DHT22;44058;52.898;6.502;2022-09-09T09:51:10;17.70;99.90
58261;DHT22;44058;52.898;6.502;2022-09-09T09:57:14;17.70;99.90
58261;DHT22;44058;52.898;6.502;2022-09-09T10:00:04;17.70;99.90
58261;DHT22;44058;52.898;6.502;2022-09-09T10:02:53;17.80;99.90
58261;DHT22;44058;52.898;6.502;2022-09-09T10:05:45;18.10;99.90
58261;DHT22;44058;52.898;6.502;2022-09-09T10:08:43;18.20;99.90
58261;DHT22;44058;52.898;6.502;2022-09-09T10:11:46;18.40;99.90
58261;DHT22;44058;52.898;6.502;2022-09-09T10:21:25;18.60;99.90
58261;DHT22;44058;52.898;6.502;2022-09-09T10:33:32;18.30;99.90
58261;DHT22;44058;52.898;6.502;2022-09-09T10:36:24;18.30;99.90
58261;DHT22;44058;52.898;6.502;2022-09-09T10:42:13;18.60;99.90
58261;DHT22;44058;52.898;6.502;2022-09-09T10:45:22;18.70;99.90
58261;DHT22;44058;52.898;6.502;2022-09-09T10:51:35;19.10;99.90
58261;DHT22;44058;52.898;6.502;2022-09-09T10:57:38;19.00;99.90
58261;DHT22;44058;52.898;6.502;2022-09-09T11:00:34;19.00;99.90
58261;DHT22;44058;52.898;6.502;2022-09-09T11:03:25;19.00;99.90
58261;DHT22;44058;52.898;6.502;2022-09-09T11:06:15;18.90;99.90
58261;DHT22;44058;52.898;6.502;2022-09-09T11:09:03;18.80;99.90
58261;DHT22;44058;52.898;6.502;2022-09-09T11:11:57;18.70;99.90
58261;DHT22;44058;52.898;6.502;2022-09-09T11:15:04;18.60;99.90
58261;DHT22;44058;52.898;6.502;2022-09-09T11:17:55;18.50;99.90
58261;DHT22;44058;52.898;6.502;2022-09-09T11:20:43;18.50;99.90
58261;DHT22;44058;52.898;6.502;2022-09-09T11:23:46;18.60;99.90
58261;DHT22;44058;52.898;6.502;2022-09-09T11:26:44;18.70;99.90
58261;DHT22;44058;52.898;6.502;2022-09-09T11:29:37;18.80;99.90
58261;DHT22;44058;52.898;6.502;2022-09-09T11:32:52;18.80;99.90
58261;DHT22;44058;52.898;6.502;2022-09-09T11:36:16;18.80;99.90
58261;DHT22;44058;52.898;6.502;2022-09-09T11:42:18;18.70;99.90
58261;DHT22;44058;52.898;6.502;2022-09-09T11:45:21;18.60;99.90
58261;DHT22;44058;52.898;6.502;2022-09-09T11:48:33;18.60;99.90
58261;DHT22;44058;52.898;6.502;2022-09-09T11:54:31;18.50;99.90
58261;DHT22;44058;52.898;6.502;2022-09-09T11:57:32;18.50;99.90
58261;DHT22;44058;52.898;6.502;2022-09-09T12:03:49;18.70;99.90
58261;DHT22;44058;52.898;6.502;2022-09-09T12:06:45;18.80;99.90
58261;DHT22;44058;52.898;6.502;2022-09-09T12:09:50;18.90;99.90
58261;DHT22;44058;52.898;6.502;2022-09-09T12:12:41;18.80;99.90
58261;DHT22;44058;52.898;6.502;2022-09-09T12:15:28;18.90;99.90
58261;DHT22;44058;52.898;6.502;2022-09-09T12:18:26;19.00;99.90
58261;DHT22;44058;52.898;6.502;2022-09-09T12:21:39;19.20;99.90
58261;DHT22;44058;52.898;6.502;2022-09-09T12:24:37;19.50;99.90
58261;DHT22;44058;52.898;6.502;2022-09-09T12:27:28;19.70;99.90
58261;DHT22;44058;52.898;6.502;2022-09-09T12:30:17;19.50;99.90
58261;DHT22;44058;52.898;6.502;2022-09-09T12:33:10;19.50;99.90
58261;DHT22;44058;52.898;6.502;2022-09-09T12:35:58;19.30;99.90
58261;DHT22;44058;52.898;6.502;2022-09-09T12:38:46;19.20;99.90
58261;DHT22;44058;52.898;6.502;2022-09-09T12:41:32;19.20;99.90
58261;DHT22;44058;52.898;6.502;2022-09-09T12:44:17;19.20;99.90
58261;DHT22;44058;52.898;6.502;2022-09-09T12:47:03;19.50;99.90
58261;DHT22;44058;52.898;6.502;2022-09-09T12:49:50;19.50;99.90
58261;DHT22;44058;52.898;6.502;2022-09-09T12:52:36;19.50;99.90
58261;DHT22;44058;52.898;6.502;2022-09-09T12:55:28;19.50;99.90
58261;DHT22;44058;52.898;6.502;2022-09-09T12:58:17;19.50;99.90
58261;DHT22;44058;52.898;6.502;2022-09-09T13:01:04;19.50;99.90
58261;DHT22;44058;52.898;6.502;2022-09-09T13:03:51;19.50;99.90
58261;DHT22;44058;52.898;6.502;2022-09-09T13:06:37;19.50;99.90
58261;DHT22;44058;52.898;6.502;2022-09-09T13:09:23;19.50;99.90
58261;DHT22;44058;52.898;6.502;2022-09-09T13:12:14;19.60;99.90
58261;DHT22;44058;52.898;6.502;2022-09-09T13:15:00;19.80;99.90
58261;DHT22;44058;52.898;6.502;2022-09-09T13:18:11;19.80;99.90
58261;DHT22;44058;52.898;6.502;2022-09-09T13:20:57;19.70;99.90
58261;DHT22;44058;52.898;6.502;2022-09-09T13:23:49;19.70;99.90
58261;DHT22;44058;52.898;6.502;2022-09-09T13:26:35;19.70;99.90
58261;DHT22;44058;52.898;6.502;2022-09-09T13:29:21;19.50;99.90
58261;DHT22;44058;52.898;6.502;2022-09-09T13:32:19;19.50;99.90
58261;DHT22;44058;52.898;6.502;2022-09-09T13:35:22;19.50;99.90
58261;DHT22;44058;52.898;6.502;2022-09-09T13:38:08;19.60;99.90
58261;DHT22;44058;52.898;6.502;2022-09-09T13:40:57;19.70;99.90
58261;DHT22;44058;52.898;6.502;2022-09-09T13:43:45;19.70;99.90
58261;DHT22;44058;52.898;6.502;2022-09-09T13:46:37;19.70;99.90
58261;DHT22;44058;52.898;6.502;2022-09-09T13:49:23;19.60;99.90
58261;DHT22;44058;52.898;6.502;2022-09-09T13:52:13;19.30;99.90
58261;DHT22;44058;52.898;6.502;2022-09-09T13:54:59;19.00;99.90
58261;DHT22;44058;52.898;6.502;2022-09-09T14:00:41;18.40;99.90
58261;DHT22;44058;52.898;6.502;2022-09-09T14:03:27;18.40;99.90
58261;DHT22;44058;52.898;6.502;2022-09-09T14:06:13;18.60;99.90
58261;DHT22;44058;52.898;6.502;2022-09-09T14:08:59;18.60;99.90
58261;DHT22;44058;52.898;6.502;2022-09-09T14:11:45;18.80;99.90
58261;DHT22;44058;52.898;6.502;2022-09-09T14:14:31;19.10;99.90
58261;DHT22;44058;52.898;6.502;2022-09-09T14:17:18;19.10;99.90
58261;DHT22;44058;52.898;6.502;2022-09-09T14:20:04;19.00;99.90
58261;DHT22;44058;52.898;6.502;2022-09-09T14:22:57;19.10;99.90
58261;DHT22;44058;52.898;6.502;2022-09-09T14:25:43;19.10;99.90
58261;DHT22;44058;52.898;6.502;2022-09-09T14:28:29;19.30;99.90
58261;DHT22;44058;52.898;6.502;2022-09-09T14:31:15;19.50;99.90
58261;DHT22;44058;52.898;6.502;2022-09-09T14:34:02;19.70;99.90
58261;DHT22;44058;52.898;6.502;2022-09-09T14:36:48;19.60;99.90
58261;DHT22;44058;52.898;6.502;2022-09-09T14:39:34;19.30;99.90
58261;DHT22;44058;52.898;6.502;2022-09-09T14:42:19;19.30;99.90
58261;DHT22;44058;52.898;6.502;2022-09-09T14:45:05;19.10;99.90
58261;DHT22;44058;52.898;6.502;2022-09-09T14:47:51;19.10;99.90
58261;DHT22;44058;52.898;6.502;2022-09-09T14:50:37;19.20;99.90
58261;DHT22;44058;52.898;6.502;2022-09-09T14:53:25;19.30;99.90
58261;DHT22;44058;52.898;6.502;2022-09-09T14:56:19;19.40;99.90
58261;DHT22;44058;52.898;6.502;2022-09-09T14:59:07;19.20;99.90
58261;DHT22;44058;52.898;6.502;2022-09-09T15:01:53;19.10;99.90
58261;DHT22;44058;52.898;6.502;2022-09-09T15:04:38;19.10;99.90
58261;DHT22;44058;52.898;6.502;2022-09-09T15:07:14;19.20;99.90
58261;DHT22;44058;52.898;6.502;2022-09-09T15:09:40;19.10;99.90
58261;DHT22;44058;52.898;6.502;2022-09-09T15:12:07;19.10;99.90
58261;DHT22;44058;52.898;6.502;2022-09-09T15:14:34;19.00;99.90
58261;DHT22;44058;52.898;6.502;2022-09-09T15:17:01;19.10;99.90
58261;DHT22;44058;52.898;6.502;2022-09-09T15:19:27;19.10;99.90
58261;DHT22;44058;52.898;6.502;2022-09-09T15:21:52;19.00;99.90
58261;DHT22;44058;52.898;6.502;2022-09-09T15:24:18;18.90;99.90
58261;DHT22;44058;52.898;6.502;2022-09-09T15:26:44;18.90;99.90
58261;DHT22;44058;52.898;6.502;2022-09-09T15:29:09;18.80;99.90
58261;DHT22;44058;52.898;6.502;2022-09-09T15:31:35;18.80;99.90
58261;DHT22;44058;52.898;6.502;2022-09-09T15:34:05;18.70;99.90
58261;DHT22;44058;52.898;6.502;2022-09-09T15:36:42;18.60;99.90
58261;DHT22;44058;52.898;6.502;2022-09-09T15:39:10;18.60;99.90
58261;DHT22;44058;52.898;6.502;2022-09-09T15:41:45;18.70;99.90
58261;DHT22;44058;52.898;6.502;2022-09-09T15:44:11;18.60;99.90
58261;DHT22;44058;52.898;6.502;2022-09-09T15:46:59;18.60;99.90
58261;DHT22;44058;52.898;6.502;2022-09-09T15:49:25;18.50;99.90
58261;DHT22;44058;52.898;6.502;2022-09-09T15:51:54;18.60;99.90
58261;DHT22;44058;52.898;6.502;2022-09-09T15:54:21;18.50;99.90
58261;DHT22;44058;52.898;6.502;2022-09-09T15:56:50;18.40;99.90
58261;DHT22;44058;52.898;6.502;2022-09-09T15:59:16;18.40;99.90
58261;DHT22;44058;52.898;6.502;2022-09-09T16:01:42;18.10;99.90
58261;DHT22;44058;52.898;6.502;2022-09-09T16:04:09;18.00;99.90
58261;DHT22;44058;52.898;6.502;2022-09-09T16:06:35;17.90;99.90
58261;DHT22;44058;52.898;6.502;2022-09-09T16:09:04;17.70;99.90
58261;DHT22;44058;52.898;6.502;2022-09-09T16:11:32;17.60;99.90
58261;DHT22;44058;52.898;6.502;2022-09-09T16:13:58;17.60;99.90
58261;DHT22;44058;52.898;6.502;2022-09-09T16:16:25;17.50;99.90
58261;DHT22;44058;52.898;6.502;2022-09-09T16:18:57;17.60;99.90
58261;DHT22;44058;52.898;6.502;2022-09-09T16:21:29;17.60;99.90
58261;DHT22;44058;52.898;6.502;2022-09-09T16:23:56;17.60;99.90
58261;DHT22;44058;52.898;6.502;2022-09-09T16:26:23;17.60;99.90
58261;DHT22;44058;52.898;6.502;2022-09-09T16:28:49;17.60;99.90
58261;DHT22;44058;52.898;6.502;2022-09-09T16:31:17;17.60;99.90
58261;DHT22;44058;52.898;6.502;2022-09-09T16:33:43;17.60;99.90
58261;DHT22;44058;52.898;6.502;2022-09-09T16:36:12;17.70;99.90
58261;DHT22;44058;52.898;6.502;2022-09-09T16:38:39;17.70;99.90
58261;DHT22;44058;52.898;6.502;2022-09-09T16:41:06;17.70;99.90
58261;DHT22;44058;52.898;6.502;2022-09-09T16:43:32;17.80;99.90
58261;DHT22;44058;52.898;6.502;2022-09-09T16:45:58;17.70;99.90
58261;DHT22;44058;52.898;6.502;2022-09-09T16:48:30;17.80;99.90
58261;DHT22;44058;52.898;6.502;2022-09-09T16:51:02;17.90;99.90
58261;DHT22;44058;52.898;6.502;2022-09-09T16:53:28;17.90;99.90
58261;DHT22;44058;52.898;6.502;2022-09-09T16:55:53;17.90;99.90
58261;DHT22;44058;52.898;6.502;2022-09-09T16:58:19;17.90;99.90
58261;DHT22;44058;52.898;6.502;2022-09-09T17:00:44;17.90;99.90
58261;DHT22;44058;52.898;6.502;2022-09-09T17:03:14;17.90;99.90
58261;DHT22;44058;52.898;6.502;2022-09-09T17:05:41;17.90;99.90
58261;DHT22;44058;52.898;6.502;2022-09-09T17:08:07;17.90;99.90
58261;DHT22;44058;52.898;6.502;2022-09-09T17:10:33;17.90;99.90
58261;DHT22;44058;52.898;6.502;2022-09-09T17:12:59;17.80;99.90
58261;DHT22;44058;52.898;6.502;2022-09-09T17:15:25;17.80;99.90
58261;DHT22;44058;52.898;6.502;2022-09-09T17:17:50;17.80;99.90
58261;DHT22;44058;52.898;6.502;2022-09-09T17:20:19;17.80;99.90
58261;DHT22;44058;52.898;6.502;2022-09-09T17:22:45;17.80;99.90
58261;DHT22;44058;52.898;6.502;2022-09-09T17:25:17;17.80;99.90
58261;DHT22;44058;52.898;6.502;2022-09-09T17:27:46;17.90;99.90
58261;DHT22;44058;52.898;6.502;2022-09-09T17:30:13;17.80;99.90
58261;DHT22;44058;52.898;6.502;2022-09-09T17:32:44;17.80;99.90
58261;DHT22;44058;52.898;6.502;2022-09-09T17:35:10;17.70;99.90
58261;DHT22;44058;52.898;6.502;2022-09-09T17:37:36;17.80;99.90
58261;DHT22;44058;52.898;6.502;2022-09-09T17:40:02;17.80;99.90
58261;DHT22;44058;52.898;6.502;2022-09-09T17:42:28;17.80;99.90
58261;DHT22;44058;52.898;6.502;2022-09-09T17:44:53;17.60;99.90
58261;DHT22;44058;52.898;6.502;2022-09-09T17:47:19;17.60;99.90
58261;DHT22;44058;52.898;6.502;2022-09-09T17:49:45;17.60;99.90
58261;DHT22;44058;52.898;6.502;2022-09-09T17:52:11;17.40;99.90
58261;DHT22;44058;52.898;6.502;2022-09-09T17:54:37;17.30;99.90
58261;DHT22;44058;52.898;6.502;2022-09-09T17:57:03;17.30;99.90
58261;DHT22;44058;52.898;6.502;2022-09-09T17:59:29;17.20;99.90
58261;DHT22;44058;52.898;6.502;2022-09-09T18:01:56;17.30;99.90
58261;DHT22;44058;52.898;6.502;2022-09-09T18:04:22;17.20;99.90
58261;DHT22;44058;52.898;6.502;2022-09-09T18:06:50;17.10;99.90
58261;DHT22;44058;52.898;6.502;2022-09-09T18:09:22;17.20;99.90
58261;DHT22;44058;52.898;6.502;2022-09-09T18:11:50;17.20;99.90
58261;DHT22;44058;52.898;6.502;2022-09-09T18:14:18;17.10;99.90
58261;DHT22;44058;52.898;6.502;2022-09-09T18:16:45;17.20;99.90
58261;DHT22;44058;52.898;6.502;2022-09-09T18:19:13;17.20;99.90
58261;DHT22;44058;52.898;6.502;2022-09-09T18:21:41;17.20;99.90
58261;DHT22;44058;52.898;6.502;2022-09-09T18:24:10;17.20;99.90
58261;DHT22;44058;52.898;6.502;2022-09-09T18:26:37;17.20;99.90
58261;DHT22;44058;52.898;6.502;2022-09-09T18:29:06;17.20;99.90
58261;DHT22;44058;52.898;6.502;2022-09-09T18:31:32;17.20;99.90
58261;DHT22;44058;52.898;6.502;2022-09-09T18:34:00;17.20;99.90
58261;DHT22;44058;52.898;6.502;2022-09-09T18:36:29;17.20;99.90
58261;DHT22;44058;52.898;6.502;2022-09-09T18:38:55;17.20;99.90
58261;DHT22;44058;52.898;6.502;2022-09-09T18:41:30;17.10;99.90
58261;DHT22;44058;52.898;6.502;2022-09-09T18:44:04;17.10;99.90